createdAt,value
2023-11-11T00:01:11.969Z,9.54
2023-11-11T00:03:39.984Z,9.50
2023-11-11T00:06:08.930Z,9.51
2023-11-11T00:08:36.649Z,9.55
2023-11-11T00:11:06.221Z,9.52
2023-11-11T00:13:35.093Z,9.56
2023-11-11T00:16:04.770Z,9.58
2023-11-11T00:18:34.034Z,9.58
2023-11-11T00:21:02.016Z,9.55
2023-11-11T00:23:29.781Z,9.54
2023-11-11T00:25:57.587Z,9.56
2023-11-11T00:28:25.397Z,9.56
2023-11-11T00:30:53.441Z,9.56
2023-11-11T00:33:22.687Z,9.55
2023-11-11T00:35:50.402Z,9.56
2023-11-11T00:38:18.119Z,9.57
2023-11-11T00:40:45.861Z,9.58
2023-11-11T00:43:14.330Z,9.54
2023-11-11T00:45:42.127Z,9.56
2023-11-11T00:48:10.034Z,9.57
2023-11-11T00:50:39.272Z,9.57
2023-11-11T00:53:07.514Z,9.53
2023-11-11T00:55:36.191Z,9.53
2023-11-11T00:58:05.000Z,9.51
2023-11-11T01:00:32.957Z,9.49
2023-11-11T01:03:00.707Z,9.46
2023-11-11T01:05:28.548Z,9.46
2023-11-11T01:07:57.769Z,9.47
2023-11-11T01:10:26.189Z,9.48
2023-11-11T01:12:55.114Z,9.45
2023-11-11T01:15:23.020Z,9.41
2023-11-11T01:17:50.938Z,9.34
2023-11-11T01:20:18.797Z,9.32
2023-11-11T01:22:46.721Z,9.30
2023-11-11T01:25:15.936Z,9.30
2023-11-11T01:27:43.770Z,9.25
2023-11-11T01:30:13.782Z,9.28
2023-11-11T01:32:41.833Z,9.26
2023-11-11T01:35:10.198Z,9.29
2023-11-11T01:37:37.917Z,9.30
2023-11-11T01:40:08.102Z,9.32
2023-11-11T01:42:37.365Z,9.31
2023-11-11T01:45:06.085Z,9.27
2023-11-11T01:47:34.502Z,9.28
2023-11-11T01:50:02.636Z,9.22
2023-11-11T01:52:31.043Z,9.21
2023-11-11T01:54:59.301Z,9.18
2023-11-11T01:57:28.327Z,9.16
2023-11-11T01:59:59.467Z,9.15
2023-11-11T02:02:27.519Z,9.17
2023-11-11T02:04:55.546Z,9.17
2023-11-11T02:07:23.461Z,9.20
2023-11-11T02:09:51.412Z,9.23
2023-11-11T02:12:21.768Z,9.25
2023-11-11T02:14:49.982Z,9.27
2023-11-11T02:17:19.866Z,9.28
2023-11-11T02:19:47.812Z,9.30
2023-11-11T02:22:17.975Z,9.31
2023-11-11T02:24:50.161Z,9.33
2023-11-11T02:27:18.228Z,9.32
2023-11-11T02:29:46.594Z,9.29
2023-11-11T02:32:14.644Z,9.32
2023-11-11T02:34:42.692Z,9.32
2023-11-11T02:37:10.683Z,9.33
2023-11-11T02:39:38.500Z,9.34
2023-11-11T02:42:08.258Z,9.34
2023-11-11T02:44:36.136Z,9.35
2023-11-11T02:47:04.009Z,9.36
2023-11-11T02:49:32.043Z,9.35
2023-11-11T02:51:59.786Z,9.32
2023-11-11T02:54:28.243Z,9.33
2023-11-11T02:56:55.976Z,9.33
2023-11-11T02:59:25.231Z,9.32
2023-11-11T03:01:53.246Z,9.19
2023-11-11T03:04:22.597Z,9.20
2023-11-11T03:06:50.661Z,9.23
2023-11-11T03:09:19.509Z,9.26
2023-11-11T03:11:47.600Z,9.29
2023-11-11T03:14:16.850Z,9.28
2023-11-11T03:16:46.125Z,9.29
2023-11-11T03:19:14.011Z,9.25
2023-11-11T03:21:41.971Z,9.26
2023-11-11T03:24:10.528Z,9.26
2023-11-11T03:26:38.319Z,9.28
2023-11-11T03:29:06.171Z,9.28
2023-11-11T03:31:34.200Z,9.29
2023-11-11T03:34:03.365Z,9.29
2023-11-11T03:36:31.425Z,9.23
2023-11-11T03:38:59.165Z,9.20
2023-11-11T03:41:26.824Z,9.20
2023-11-11T03:43:55.126Z,9.21
2023-11-11T03:46:22.909Z,9.25
2023-11-11T03:48:50.895Z,9.25
2023-11-11T03:51:20.218Z,9.25
2023-11-11T03:53:48.017Z,9.29
2023-11-11T03:56:15.849Z,9.29
2023-11-11T03:58:43.558Z,9.25
2023-11-11T04:01:11.906Z,9.21
2023-11-11T04:03:41.373Z,9.21
2023-11-11T04:06:10.952Z,9.23
2023-11-11T04:08:41.326Z,9.23
2023-11-11T04:11:09.694Z,9.19
2023-11-11T04:13:39.849Z,9.19
2023-11-11T04:16:09.547Z,9.18
2023-11-11T04:18:37.795Z,9.17
2023-11-11T04:21:06.629Z,9.19
2023-11-11T04:23:35.343Z,9.09
2023-11-11T04:26:05.016Z,8.99
2023-11-11T04:28:32.839Z,8.89
2023-11-11T04:31:00.834Z,8.82
2023-11-11T04:33:29.783Z,8.81
2023-11-11T04:35:57.968Z,8.74
2023-11-11T04:38:28.267Z,8.66
2023-11-11T04:40:58.217Z,8.56
2023-11-11T04:43:28.472Z,8.50
2023-11-11T04:45:56.289Z,8.57
2023-11-11T04:48:24.133Z,8.53
2023-11-11T04:50:52.606Z,8.50
2023-11-11T04:53:20.739Z,8.54
2023-11-11T04:55:49.610Z,8.53
2023-11-11T04:58:18.453Z,8.57
2023-11-11T05:00:48.329Z,8.56
2023-11-11T05:03:18.859Z,8.55
2023-11-11T05:05:46.824Z,8.55
2023-11-11T05:08:14.785Z,8.52
2023-11-11T05:10:42.817Z,8.52
2023-11-11T05:13:10.589Z,8.56
2023-11-11T05:15:43.809Z,8.48
2023-11-11T05:18:13.804Z,8.49
2023-11-11T05:20:41.614Z,8.54
2023-11-11T05:23:11.247Z,8.55
2023-11-11T05:25:39.520Z,8.57
2023-11-11T05:28:08.569Z,8.49
2023-11-11T05:30:36.695Z,8.43
2023-11-11T05:33:06.389Z,8.33
2023-11-11T05:35:35.782Z,8.32
2023-11-11T05:38:03.735Z,8.30
2023-11-11T05:40:31.687Z,8.27
2023-11-11T05:43:01.440Z,8.29
2023-11-11T05:45:29.855Z,8.31
2023-11-11T05:47:57.913Z,8.37
2023-11-11T05:50:25.641Z,8.38
2023-11-11T05:52:54.692Z,8.38
2023-11-11T05:55:22.803Z,8.35
2023-11-11T05:57:51.507Z,8.41
2023-11-11T06:00:19.740Z,8.46
2023-11-11T06:02:47.468Z,8.49
2023-11-11T06:05:15.699Z,8.53
2023-11-11T06:07:43.535Z,8.52
2023-11-11T06:10:13.732Z,8.48
2023-11-11T06:12:41.773Z,8.44
2023-11-11T06:15:10.569Z,8.48
2023-11-11T06:17:38.591Z,8.52
2023-11-11T06:20:07.737Z,8.55
2023-11-11T06:22:35.581Z,8.51
2023-11-11T06:25:03.390Z,8.54
2023-11-11T06:27:32.599Z,8.53
2023-11-11T06:30:00.951Z,8.52
2023-11-11T06:32:28.922Z,8.49
2023-11-11T06:34:57.160Z,8.47
2023-11-11T06:37:26.559Z,8.47
2023-11-11T06:39:54.531Z,8.47
2023-11-11T06:42:22.384Z,8.44
2023-11-11T06:44:51.788Z,8.44
2023-11-11T06:47:19.969Z,8.48
2023-11-11T06:49:48.023Z,8.47
2023-11-11T06:52:16.002Z,8.46
2023-11-11T06:54:45.016Z,8.49
2023-11-11T06:57:13.219Z,8.44
2023-11-11T06:59:40.964Z,8.44
2023-11-11T07:02:13.836Z,8.45
2023-11-11T07:04:41.993Z,8.47
2023-11-11T07:07:13.222Z,8.45
2023-11-11T07:09:42.772Z,8.48
2023-11-11T07:12:14.180Z,8.46
2023-11-11T07:14:41.998Z,8.47
2023-11-11T07:17:11.368Z,8.50
2023-11-11T07:19:39.159Z,8.53
2023-11-11T07:24:38.606Z,8.53
2023-11-11T07:27:07.105Z,8.55
2023-11-11T07:29:34.925Z,8.55
2023-11-11T07:32:02.791Z,8.58
2023-11-11T07:34:32.692Z,8.59
2023-11-11T07:37:00.910Z,8.56
2023-11-11T07:39:28.730Z,8.55
2023-11-11T07:41:56.660Z,8.50
2023-11-11T07:44:25.718Z,8.50
2023-11-11T07:46:53.592Z,8.54
2023-11-11T07:49:21.558Z,8.53
2023-11-11T07:51:51.211Z,8.53
2023-11-11T07:54:18.958Z,8.46
2023-11-11T07:56:47.025Z,8.49
2023-11-11T07:59:14.911Z,8.45
2023-11-11T08:01:43.100Z,8.44
2023-11-11T08:04:11.974Z,8.46
2023-11-11T08:06:39.877Z,8.46
2023-11-11T08:09:11.052Z,8.49
2023-11-11T08:11:39.631Z,8.40
2023-11-11T08:14:07.543Z,8.41
2023-11-11T08:16:35.653Z,8.45
2023-11-11T08:19:05.422Z,8.45
2023-11-11T08:21:34.219Z,8.45
2023-11-11T08:24:02.088Z,8.49
2023-11-11T08:26:31.384Z,8.50
2023-11-11T08:28:59.934Z,8.48
2023-11-11T08:31:28.043Z,8.41
2023-11-11T08:33:56.147Z,8.46
2023-11-11T08:36:25.526Z,8.46
2023-11-11T08:38:53.848Z,8.52
2023-11-11T08:41:21.673Z,8.56
2023-11-11T08:43:51.253Z,8.60
2023-11-11T08:46:19.220Z,8.60
2023-11-11T08:48:47.353Z,8.56
2023-11-11T08:51:15.376Z,8.64
2023-11-11T08:53:43.302Z,8.65
2023-11-11T08:56:11.116Z,8.65
2023-11-11T08:58:38.933Z,8.70
2023-11-11T09:01:08.176Z,8.66
2023-11-11T09:03:36.960Z,8.67
2023-11-11T09:06:06.631Z,8.76
2023-11-11T09:08:34.382Z,8.77
2023-11-11T09:11:02.295Z,8.75
2023-11-11T09:13:30.362Z,8.72
2023-11-11T09:15:58.323Z,8.83
2023-11-11T09:18:27.670Z,8.92
2023-11-11T09:20:56.678Z,9.02
2023-11-11T09:23:24.473Z,8.93
2023-11-11T09:25:52.211Z,8.89
2023-11-11T09:28:20.383Z,8.82
2023-11-11T09:30:48.399Z,8.77
2023-11-11T09:33:17.836Z,8.74
2023-11-11T09:35:47.637Z,8.83
2023-11-11T09:38:15.721Z,8.89
2023-11-11T09:40:43.674Z,8.90
2023-11-11T09:43:12.331Z,8.84
2023-11-11T09:45:40.322Z,8.84
2023-11-11T09:48:08.973Z,8.86
2023-11-11T09:50:37.997Z,8.86
2023-11-11T09:53:07.983Z,8.84
2023-11-11T09:55:37.869Z,8.81
2023-11-11T09:58:06.987Z,8.86
2023-11-11T10:00:35.034Z,8.89
2023-11-11T10:03:03.172Z,8.91
2023-11-11T10:05:31.804Z,9.07
2023-11-11T10:07:59.629Z,9.17
2023-11-11T10:10:28.832Z,9.23
2023-11-11T10:12:58.203Z,9.01
2023-11-11T10:15:25.992Z,8.96
2023-11-11T10:17:53.947Z,9.03
2023-11-11T10:20:21.832Z,9.10
2023-11-11T10:22:51.054Z,9.10
2023-11-11T10:25:21.041Z,9.10
2023-11-11T10:27:51.646Z,9.13
2023-11-11T10:30:21.809Z,9.17
2023-11-11T10:32:53.240Z,9.24
2023-11-11T10:35:22.135Z,9.17
2023-11-11T10:37:52.095Z,9.19
2023-11-11T10:40:21.230Z,9.01
2023-11-11T10:42:51.524Z,9.08
2023-11-11T10:45:19.295Z,9.13
2023-11-11T10:47:48.171Z,9.26
2023-11-11T10:50:16.982Z,9.20
2023-11-11T10:52:45.479Z,9.21
2023-11-11T10:55:13.917Z,9.19
2023-11-11T10:57:43.635Z,9.22
2023-11-11T11:00:21.880Z,9.19
2023-11-11T11:02:54.013Z,9.05
2023-11-11T11:05:29.727Z,8.99
2023-11-11T11:08:12.184Z,8.93
2023-11-11T11:10:51.743Z,8.93
2023-11-11T11:13:20.223Z,8.94
2023-11-11T11:15:49.809Z,9.01
2023-11-11T11:18:24.691Z,9.09
2023-11-11T11:20:54.955Z,9.11
2023-11-11T11:23:23.646Z,9.23
2023-11-11T11:25:53.101Z,9.32
2023-11-11T11:28:23.779Z,9.26
2023-11-11T11:30:56.019Z,9.28
2023-11-11T11:33:27.425Z,9.24
2023-11-11T11:35:57.649Z,9.14
2023-11-11T11:38:29.404Z,9.01
2023-11-11T11:41:02.983Z,8.93
2023-11-11T11:43:31.976Z,8.97
2023-11-11T11:46:01.512Z,8.98
2023-11-11T11:48:31.900Z,9.00
2023-11-11T11:51:08.366Z,8.91
2023-11-11T11:53:36.805Z,8.93
2023-11-11T11:56:05.413Z,8.98
2023-11-11T11:58:46.321Z,8.96
2023-11-11T12:01:24.157Z,8.92
2023-11-11T12:03:52.577Z,8.97
2023-11-11T12:06:21.036Z,8.93
2023-11-11T12:08:50.252Z,8.98
2023-11-11T12:11:24.929Z,9.01
2023-11-11T12:13:53.061Z,9.02
2023-11-11T12:16:21.081Z,9.05
2023-11-11T12:18:50.145Z,9.06
2023-11-11T12:21:19.769Z,9.04
2023-11-11T12:23:47.710Z,8.99
2023-11-11T12:26:16.422Z,9.03
2023-11-11T12:28:45.315Z,9.03
2023-11-11T12:31:13.085Z,8.95
2023-11-11T12:33:42.611Z,8.93
2023-11-11T12:36:12.069Z,8.90
2023-11-11T12:38:40.101Z,8.85
2023-11-11T12:41:12.953Z,8.89
2023-11-11T12:43:40.756Z,8.86
2023-11-11T12:46:15.010Z,8.76
2023-11-11T12:48:42.861Z,8.70
2023-11-11T12:51:29.687Z,8.69
2023-11-11T12:53:58.109Z,8.70
2023-11-11T12:56:26.083Z,8.78
2023-11-11T12:59:06.354Z,8.77
2023-11-11T13:01:35.102Z,8.69
2023-11-11T13:04:04.797Z,8.67
2023-11-11T13:06:35.555Z,8.69
2023-11-11T13:09:05.643Z,8.62
2023-11-11T13:11:36.067Z,8.58
2023-11-11T13:14:05.062Z,8.60
2023-11-11T13:16:33.570Z,8.51
2023-11-11T13:19:02.645Z,8.46
2023-11-11T13:21:31.024Z,8.43
2023-11-11T13:24:00.821Z,8.43
2023-11-11T13:26:29.085Z,8.45
2023-11-11T13:28:56.818Z,8.47
2023-11-11T13:31:25.861Z,8.47
2023-11-11T13:33:54.219Z,8.39
2023-11-11T13:36:26.332Z,8.39
2023-11-11T13:38:54.404Z,8.31
2023-11-11T13:41:27.610Z,8.30
2023-11-11T13:43:57.020Z,8.27
2023-11-11T13:46:27.204Z,8.32
2023-11-11T13:48:56.539Z,8.39
2023-11-11T13:51:25.045Z,8.30
2023-11-11T13:53:56.416Z,8.21
2023-11-11T13:56:26.116Z,8.25
2023-11-11T13:58:56.308Z,8.27
2023-11-11T14:01:25.813Z,8.33
2023-11-11T14:03:54.967Z,8.32
2023-11-11T14:06:24.231Z,8.27
2023-11-11T14:08:55.928Z,8.34
2023-11-11T14:11:26.908Z,8.36
2023-11-11T14:13:54.814Z,8.36
2023-11-11T14:16:24.744Z,8.33
2023-11-11T14:18:52.680Z,8.31
2023-11-11T14:21:20.773Z,8.28
2023-11-11T14:23:48.496Z,8.27
2023-11-11T14:26:16.321Z,8.25
2023-11-11T14:28:45.658Z,8.21
2023-11-11T14:31:16.087Z,8.20
2023-11-11T14:33:54.535Z,8.18
2023-11-11T14:36:29.280Z,8.22
2023-11-11T14:38:57.136Z,8.18
2023-11-11T14:41:25.905Z,8.20
2023-11-11T14:43:55.624Z,8.20
2023-11-11T14:46:24.423Z,8.21
2023-11-11T14:48:52.186Z,8.19
2023-11-11T14:51:20.275Z,8.21
2023-11-11T14:53:48.156Z,8.23
2023-11-11T14:56:15.921Z,8.29
2023-11-11T14:58:44.287Z,8.43
2023-11-11T15:01:15.150Z,8.54
2023-11-11T15:03:43.120Z,8.67
2023-11-11T15:06:11.688Z,8.72
2023-11-11T15:08:42.408Z,8.64
2023-11-11T15:11:11.978Z,8.51
2023-11-11T15:13:41.038Z,8.45
2023-11-11T15:16:11.282Z,8.36
2023-11-11T15:18:40.457Z,8.30
2023-11-11T15:21:09.019Z,8.25
2023-11-11T15:23:37.312Z,8.26
2023-11-11T15:26:07.042Z,8.24
2023-11-11T15:28:34.950Z,8.20
2023-11-11T15:31:03.550Z,8.16
2023-11-11T15:33:31.453Z,8.12
2023-11-11T15:36:00.537Z,8.13
2023-11-11T15:38:28.940Z,8.10
2023-11-11T15:40:57.849Z,8.11
2023-11-11T15:43:25.895Z,8.05
2023-11-11T15:45:54.355Z,8.01
2023-11-11T15:48:22.294Z,8.03
2023-11-11T15:50:50.033Z,7.96
2023-11-11T15:53:19.579Z,7.97
2023-11-11T15:55:49.015Z,7.98
2023-11-11T15:58:17.918Z,8.04
2023-11-11T16:00:46.001Z,8.07
2023-11-11T16:03:13.863Z,8.09
2023-11-11T16:05:41.908Z,8.12
2023-11-11T16:08:09.953Z,8.17
2023-11-11T16:10:39.199Z,8.16
2023-11-11T16:13:06.902Z,8.11
2023-11-11T16:15:34.661Z,8.12
2023-11-11T16:18:03.611Z,8.15
2023-11-11T16:20:31.978Z,8.14
2023-11-11T16:23:00.359Z,8.10
2023-11-11T16:25:29.101Z,8.05
2023-11-11T16:27:58.816Z,8.03
2023-11-11T16:30:26.801Z,8.08
2023-11-11T16:32:54.533Z,8.01
2023-11-11T16:35:22.344Z,7.99
2023-11-11T16:37:50.146Z,8.01
2023-11-11T16:40:18.708Z,7.97
2023-11-11T16:42:46.552Z,7.92
2023-11-11T16:45:15.621Z,7.88
2023-11-11T16:47:43.404Z,7.91
2023-11-11T16:50:14.017Z,7.93
2023-11-11T16:52:41.859Z,7.97
2023-11-11T16:55:11.796Z,8.01
2023-11-11T16:57:39.531Z,7.99
2023-11-11T17:00:09.908Z,7.99
2023-11-11T17:02:39.640Z,8.00
2023-11-11T17:05:08.137Z,8.00
2023-11-11T17:07:37.198Z,8.06
2023-11-11T17:10:06.888Z,8.09
2023-11-11T17:12:35.191Z,8.14
2023-11-11T17:15:03.593Z,8.15
2023-11-11T17:17:31.539Z,8.20
2023-11-11T17:20:01.404Z,8.24
2023-11-11T17:22:29.190Z,8.25
2023-11-11T17:24:57.010Z,8.25
2023-11-11T17:27:25.241Z,8.18
2023-11-11T17:29:55.297Z,8.07
2023-11-11T17:32:23.644Z,8.07
2023-11-11T17:34:51.667Z,8.11
2023-11-11T17:37:21.591Z,8.11
2023-11-11T17:39:49.350Z,8.13
2023-11-11T17:42:17.105Z,8.14
2023-11-11T17:44:44.876Z,8.09
2023-11-11T17:47:12.758Z,8.04
2023-11-11T17:49:40.614Z,8.08
2023-11-11T17:52:09.899Z,8.05
2023-11-11T17:54:40.052Z,8.03
2023-11-11T17:57:07.888Z,8.02
2023-11-11T17:59:35.767Z,7.96
2023-11-11T18:02:04.559Z,7.89
2023-11-11T18:04:32.618Z,7.84
2023-11-11T18:07:00.406Z,7.84
2023-11-11T18:09:28.175Z,7.93
2023-11-11T18:11:57.266Z,7.98
2023-11-11T18:14:25.033Z,7.99
2023-11-11T18:16:52.962Z,7.99
2023-11-11T18:19:20.763Z,8.02
2023-11-11T18:21:48.509Z,8.05
2023-11-11T18:24:16.275Z,8.12
2023-11-11T18:26:44.096Z,8.29
2023-11-11T18:29:13.316Z,8.48
2023-11-11T18:31:41.050Z,8.65
2023-11-11T18:34:08.781Z,8.70
2023-11-11T18:36:36.476Z,8.67
2023-11-11T18:39:04.637Z,8.54
2023-11-11T18:41:33.025Z,8.46
2023-11-11T18:44:00.768Z,8.44
2023-11-11T18:46:29.871Z,8.43
2023-11-11T18:48:57.733Z,8.44
2023-11-11T18:51:26.349Z,8.38
2023-11-11T18:53:54.353Z,8.31
2023-11-11T18:56:22.200Z,8.34
2023-11-11T18:58:50.496Z,8.34
2023-11-11T19:01:18.440Z,8.36
2023-11-11T19:03:47.642Z,8.32
2023-11-11T19:06:15.469Z,8.33
2023-11-11T19:08:43.296Z,8.24
2023-11-11T19:11:11.400Z,8.20
2023-11-11T19:13:39.316Z,8.23
2023-11-11T19:16:08.467Z,8.23
2023-11-11T19:18:37.236Z,8.24
2023-11-11T19:21:06.729Z,8.27
2023-11-11T19:23:35.528Z,8.28
2023-11-11T19:26:06.953Z,8.30
2023-11-11T19:28:35.256Z,8.28
2023-11-11T19:31:04.443Z,8.21
2023-11-11T19:33:32.667Z,8.22
2023-11-11T19:36:03.321Z,8.24
2023-11-11T19:38:32.440Z,8.22
2023-11-11T19:41:00.535Z,8.25
2023-11-11T19:43:28.708Z,8.20
2023-11-11T19:45:56.709Z,8.23
2023-11-11T19:48:24.479Z,8.21
2023-11-11T19:50:54.240Z,8.22
2023-11-11T19:53:23.907Z,8.21
2023-11-11T19:55:54.261Z,8.20
2023-11-11T19:58:22.720Z,8.18
2023-11-11T20:00:51.015Z,8.19
2023-11-11T20:03:18.852Z,8.17
2023-11-11T20:05:47.328Z,8.16
2023-11-11T20:08:15.446Z,8.17
2023-11-11T20:10:43.307Z,8.21
2023-11-11T20:13:12.521Z,8.18
2023-11-11T20:15:42.234Z,8.17
2023-11-11T20:18:10.583Z,8.19
2023-11-11T20:20:38.977Z,8.20
2023-11-11T20:23:06.971Z,8.21
2023-11-11T20:25:35.026Z,8.22
2023-11-11T20:28:03.396Z,8.22
2023-11-11T20:30:34.786Z,8.24
2023-11-11T20:33:05.422Z,8.24
2023-11-11T20:35:33.413Z,8.26
2023-11-11T20:38:01.970Z,8.27
2023-11-11T20:40:30.081Z,8.30
2023-11-11T20:42:58.767Z,8.29
2023-11-11T20:45:26.950Z,8.22
2023-11-11T20:47:58.702Z,8.19
2023-11-11T20:50:27.197Z,8.16
2023-11-11T20:52:55.480Z,8.18
2023-11-11T20:55:23.933Z,8.23
2023-11-11T20:57:52.532Z,8.23
2023-11-11T21:00:21.545Z,8.18
2023-11-11T21:02:50.267Z,8.13
2023-11-11T21:05:20.240Z,8.06
2023-11-11T21:07:48.691Z,8.05
2023-11-11T21:10:17.331Z,8.07
2023-11-11T21:12:48.585Z,8.07
2023-11-11T21:15:18.721Z,8.06
2023-11-11T21:17:47.418Z,8.07
2023-11-11T21:20:16.625Z,8.09
2023-11-11T21:22:49.079Z,8.12
2023-11-11T21:25:17.061Z,8.16
2023-11-11T21:27:45.153Z,8.16
2023-11-11T21:30:14.614Z,8.18
2023-11-11T21:32:42.851Z,8.21
2023-11-11T21:35:11.317Z,8.36
2023-11-11T21:37:39.497Z,8.63
2023-11-11T21:40:11.569Z,8.62
2023-11-11T21:42:39.725Z,8.54
2023-11-11T21:45:08.185Z,8.40
2023-11-11T21:47:36.105Z,8.36
2023-11-11T21:50:06.420Z,8.35
2023-11-11T21:52:37.485Z,8.36
2023-11-11T21:55:06.638Z,8.35
2023-11-11T21:57:37.555Z,8.32
2023-11-11T22:00:10.246Z,8.33
2023-11-11T22:02:38.616Z,8.26
2023-11-11T22:05:08.502Z,8.21
2023-11-11T22:07:36.427Z,8.24
2023-11-11T22:10:06.526Z,8.20
2023-11-11T22:12:35.612Z,8.20
2023-11-11T22:15:03.564Z,8.20
2023-11-11T22:17:31.375Z,8.22
2023-11-11T22:19:59.191Z,8.24
2023-11-11T22:22:27.173Z,8.23
2023-11-11T22:24:55.362Z,8.17
2023-11-11T22:27:23.186Z,8.15
2023-11-11T22:29:53.398Z,8.19
2023-11-11T22:32:21.870Z,8.20
2023-11-11T22:34:49.845Z,8.21
2023-11-11T22:37:17.743Z,8.20
2023-11-11T22:39:46.327Z,8.17
2023-11-11T22:42:14.157Z,8.15
2023-11-11T22:44:42.653Z,8.18
2023-11-11T22:47:12.038Z,8.20
2023-11-11T22:49:41.105Z,8.22
2023-11-11T22:52:09.140Z,8.23
2023-11-11T22:54:36.867Z,8.22
2023-11-11T22:57:04.907Z,8.18
2023-11-11T22:59:33.069Z,8.16
2023-11-11T23:02:01.303Z,8.21
2023-11-11T23:04:31.050Z,8.16
2023-11-11T23:06:59.381Z,8.21
2023-11-11T23:09:28.119Z,8.22
2023-11-11T23:11:57.914Z,8.22
2023-11-11T23:14:25.929Z,8.21
2023-11-11T23:16:53.802Z,8.21
2023-11-11T23:19:21.758Z,8.22
2023-11-11T23:21:50.867Z,8.20
2023-11-11T23:24:18.828Z,8.23
2023-11-11T23:26:47.530Z,8.24
2023-11-11T23:29:15.324Z,8.21
2023-11-11T23:31:43.823Z,8.17
2023-11-11T23:34:12.280Z,8.19
2023-11-11T23:36:40.138Z,8.17
2023-11-11T23:39:09.257Z,8.21
2023-11-11T23:41:37.289Z,8.21
2023-11-11T23:44:05.590Z,8.16
2023-11-11T23:46:34.613Z,8.20
2023-11-11T23:49:02.541Z,8.19
2023-11-11T23:51:30.935Z,8.21
2023-11-11T23:53:59.050Z,8.20
2023-11-11T23:56:28.449Z,8.23
2023-11-11T23:58:56.168Z,8.22
